Wafrah — 9KEG — position and weather

sailwx.info

Track history (hours):
 
Tides and Currents Weather Stations Pressure Air Temp Water Temp Dewpoint Dewpoint Depression Visibility Wind Speed Wind Dir Waves Ship Positions

Wafrah

Last reported at 2018-Apr-25 01:32 UTC. Time now 2018-Apr-26 11:45 UTC.
Position N 14°42' E 070°40'.

Length 250 m; draft 13.2 m.

Type: Ship. MMSI: 447162000.

Date/timePositionNaut miles runAvg speedWind from/ knotsBaromVisibWave heightAir tempDewpointWater temp
2018-Apr-25 01:32N 14°42' E 070°40'115.5
2018-Apr-25 01:30N 14°43' E 070°40'1215.3
2018-Apr-25 00:43N 14°53' E 070°34'12314.9
2018-Apr-24 16:26N 16°40' E 069°30'5115.5
2018-Apr-24 13:08N 17°25' E 069°05'315.7
2018-Apr-24 12:58N 17°28' E 069°03'715.5
2018-Apr-24 12:29N 17°34' E 068°60'715.2
2018-Apr-24 11:59N 17°41' E 068°56'815.0
2018-Apr-24 11:28N 17°47' E 068°52'815.1
2018-Apr-24 10:56N 17°54' E 068°48'615.1
2018-Apr-24 10:30N 18°00' E 068°44'814.9
2018-Apr-24 09:57N 18°07' E 068°40'1415.0
2018-Apr-24 09:02N 18°19' E 068°33'614.7
2018-Apr-24 08:36N 18°25' E 068°30'214.7
2018-Apr-24 08:29N 18°26' E 068°29'  
Track history (hours):
 
Tides and Currents Weather Stations Pressure Air Temp Water Temp Dewpoint Dewpoint Depression Visibility Wind Speed Wind Dir Waves Ship Positions

Wafrah

Last reported at 2018-Apr-25 01:32 UTC. Time now 2018-Apr-26 11:45 UTC.
Position N 14°42' E 070°40'.

Length 250 m; draft 13.2 m.

Type: Ship. MMSI: 447162000.

Date/timePositionNaut miles runAvg speedWind from/ knotsBaromVisibWave heightAir tempDewpointWater temp
2018-Apr-25 01:32N 14°42' E 070°40'115.5
2018-Apr-25 01:30N 14°43' E 070°40'1215.3
2018-Apr-25 00:43N 14°53' E 070°34'12314.9
2018-Apr-24 16:26N 16°40' E 069°30'5115.5
2018-Apr-24 13:08N 17°25' E 069°05'315.7
2018-Apr-24 12:58N 17°28' E 069°03'715.5
2018-Apr-24 12:29N 17°34' E 068°60'715.2
2018-Apr-24 11:59N 17°41' E 068°56'815.0
2018-Apr-24 11:28N 17°47' E 068°52'815.1
2018-Apr-24 10:56N 17°54' E 068°48'615.1
2018-Apr-24 10:30N 18°00' E 068°44'814.9
2018-Apr-24 09:57N 18°07' E 068°40'1415.0
2018-Apr-24 09:02N 18°19' E 068°33'614.7
2018-Apr-24 08:36N 18°25' E 068°30'214.7
2018-Apr-24 08:29N 18°26' E 068°29'  

Dump ship's entire track history